NCAR-RAP Real-Time Weather Data

Output produced by METARs form (06 May 2021  15:01 UTC)
found at http://weather.rap.ucar.edu/surface/
 
KBOS 061454Z 29015KT 10SM SCT046 16/03 A2984 RMK AO2 SLP103 T01560028 51015
KBOS 061354Z 30014G23KT 10SM SCT040 14/03 A2983 RMK AO2 PK WND 31026/1342 SLP101 T01440033
KBOS 061254Z 30015G27KT 10SM SCT035 13/04 A2981 RMK AO2 PK WND 32027/1251 SLP095 T01330044
KBOS 061154Z 30015G22KT 10SM FEW050 12/06 A2979 RMK AO2 SLP089 70021 T01220056 10122 20106 52020
KBOS 061054Z 29011KT 10SM FEW070 12/06 A2977 RMK AO2 SLP081 T01170061
KBOS 060954Z 29010KT 10SM FEW070 11/08 A2976 RMK AO2 SLP076 T01110078
KBOS 060854Z 30011KT 10SM FEW036 BKN070 OVC250 12/08 A2973 RMK AO2 SLP068 T01170078 53009
KBOS 060754Z 28008KT 10SM FEW039 OVC070 12/09 A2972 RMK AO2 SLP065 T01170089
KBOS 060654Z 27007KT 10SM OVC070 11/08 A2971 RMK AO2 SLP061 T01110083
KBOS 060554Z 28005KT 10SM OVC065 11/08 A2971 RMK A02 SLP060 60002 T01060083 10106 20094 58004
KBOS 060454Z 28005KT 7SM FEW007 SCT034 BKN055 OVC250 10/08 A2972 RMK AO2 DZE22RAB0358E09B22E30 SLP062 P0001 T01000078 401000089
KBOS 060409Z 30005KT 5SM -DZ BR FEW007 SCT027 OVC049 10/08 A2972 RMK AO2 RAB0358E09 P0000 T01000078
KBOS 060354Z 30006KT 7SM -DZ FEW002 FEW007 BKN027 OVC250 10/08 A2972 RMK AO2 SLP064 P0000 T01000078
KBOS 060316Z 33006KT 8SM -DZ FEW003 SCT007 BKN029 OVC250 10/07 A2972 RMK A02 P0000 T01000072
KBOS 060254Z 34003KT 6SM -DZ BR FEW002 BKN007 OVC032 10/08 A2972 RMK AO2 DZE08B52RAB08E46 SLP064 VIS NE-SE 1 1/2 P0001 60001 T01000078 50011
KBOS 060238Z 31006KT 5SM -RA BR BKN007 OVC029 09/07 A2973 RMK AO2 DZE08RAB08 VIS NE-SE 1 P0001 T00940072
KBOS 060213Z 33006KT 4SM -RA BR FEW002 FEW007 OVC029 09/07 A2974 RMK AO2 DZE08RAB08 VIS NE-SE 1 P0000 T00940072
KBOS 060154Z 32007KT 10SM -DZ FEW007 SCT033 OVC048 09/07 A2974 RMK AO2 RAE29DZB42 SLP069 P0000 T00940072
KBOS 060054Z 34005KT 10SM -RA FEW003 FEW008 OVC042 09/07 A2971 RMK AO2 SLP060 P0000 T00940067
KBOS 060021Z 01007KT 3SM -RA FEW002 FEW008 OVC033 09/07 A2969 RMK AO2 SFC VIS 7 P0000 T00940067
KBOS 052354Z 36009KT 3SM -RA FEW002 SCT008 OVC026 09/07 A2969 RMK AO2 SFC VIS 6 SLP053 P0001 60017 T00940067 10100 20094 53002
KBOS 052333Z 35009KT 3SM -RA FEW002 SCT008 OVC023 09/07 A2970 RMK AO2 SFC VIS 5 P0001 T00940067